Addington, Oklahoma
Current Conditions -  °F | °C
As of 3:35 PM on Friday 19 Dec 2014 (Local Time) from KDUC Reporting Station
Overcast Overcast  
Wind Chill: 39°   Ceiling: 800
Heat Index: 43°   Visibility: NA
Dew Point: 43°   Wind: 6mph
Humidity: 100%   Direction: 10°N
Pressure: 30.19"   Gusts: NA
Location:  34.24°N, 97.97°W
Report Text: KDUC 192135Z AUTO 01005KT BKN008 OVC012 06/06 A3019 RMK AO2 PWINO
Loading
Personal Weather Stations






























Interactive Weather Map New forecast layout! Learn more

10-Day Weather Forecast

Advertisements
Track Severe Weather on mobile